sensor_id;sensor_type;location;lat;lon;timestamp;P1;durP1;ratioP1;P2;durP2;ratioP2
21513;SDS011;10918;48.102;11.636;2023-06-10T00:00:42;7.07;;;6.10;;
21513;SDS011;10918;48.102;11.636;2023-06-10T00:03:09;6.63;;;6.03;;
21513;SDS011;10918;48.102;11.636;2023-06-10T00:05:35;6.70;;;5.85;;
21513;SDS011;10918;48.102;11.636;2023-06-10T00:08:03;8.85;;;6.05;;
21513;SDS011;10918;48.102;11.636;2023-06-10T00:10:35;8.23;;;6.70;;
21513;SDS011;10918;48.102;11.636;2023-06-10T00:13:02;7.38;;;6.78;;
21513;SDS011;10918;48.102;11.636;2023-06-10T00:15:28;7.80;;;6.50;;
21513;SDS011;10918;48.102;11.636;2023-06-10T00:17:54;7.40;;;6.70;;
21513;SDS011;10918;48.102;11.636;2023-06-10T00:20:20;6.78;;;6.18;;
21513;SDS011;10918;48.102;11.636;2023-06-10T00:22:50;7.38;;;6.63;;
21513;SDS011;10918;48.102;11.636;2023-06-10T00:25:17;7.53;;;6.82;;
21513;SDS011;10918;48.102;11.636;2023-06-10T00:27:43;7.45;;;6.75;;
21513;SDS011;10918;48.102;11.636;2023-06-10T00:30:09;7.00;;;6.40;;
21513;SDS011;10918;48.102;11.636;2023-06-10T00:32:35;6.90;;;6.20;;
21513;SDS011;10918;48.102;11.636;2023-06-10T00:35:05;8.73;;;6.57;;
21513;SDS011;10918;48.102;11.636;2023-06-10T00:37:31;6.43;;;5.93;;
21513;SDS011;10918;48.102;11.636;2023-06-10T00:39:57;6.93;;;6.25;;
21513;SDS011;10918;48.102;11.636;2023-06-10T00:42:23;6.40;;;5.82;;
21513;SDS011;10918;48.102;11.636;2023-06-10T00:44:50;7.15;;;5.93;;
21513;SDS011;10918;48.102;11.636;2023-06-10T00:47:16;6.22;;;5.63;;
21513;SDS011;10918;48.102;11.636;2023-06-10T00:49:42;7.15;;;6.45;;
21513;SDS011;10918;48.102;11.636;2023-06-10T00:52:09;6.30;;;5.70;;
21513;SDS011;10918;48.102;11.636;2023-06-10T00:54:36;6.95;;;5.90;;
21513;SDS011;10918;48.102;11.636;2023-06-10T00:57:02;6.15;;;5.50;;
21513;SDS011;10918;48.102;11.636;2023-06-10T00:59:28;7.60;;;5.82;;
21513;SDS011;10918;48.102;11.636;2023-06-10T01:01:54;6.28;;;5.68;;
21513;SDS011;10918;48.102;11.636;2023-06-10T01:04:21;5.90;;;5.40;;
21513;SDS011;10918;48.102;11.636;2023-06-10T01:12:20;6.03;;;5.47;;
21513;SDS011;10918;48.102;11.636;2023-06-10T01:14:49;5.60;;;5.10;;
21513;SDS011;10918;48.102;11.636;2023-06-10T01:17:16;6.18;;;5.68;;
21513;SDS011;10918;48.102;11.636;2023-06-10T01:19:43;6.00;;;5.38;;
21513;SDS011;10918;48.102;11.636;2023-06-10T01:22:09;6.22;;;5.63;;
21513;SDS011;10918;48.102;11.636;2023-06-10T01:24:35;6.57;;;5.80;;
21513;SDS011;10918;48.102;11.636;2023-06-10T01:27:03;6.90;;;5.57;;
21513;SDS011;10918;48.102;11.636;2023-06-10T01:29:39;5.97;;;5.47;;
21513;SDS011;10918;48.102;11.636;2023-06-10T01:34:52;5.90;;;5.30;;
21513;SDS011;10918;48.102;11.636;2023-06-10T01:37:19;6.30;;;5.68;;
21513;SDS011;10918;48.102;11.636;2023-06-10T01:39:46;6.68;;;5.80;;
21513;SDS011;10918;48.102;11.636;2023-06-10T01:42:12;6.32;;;5.72;;
21513;SDS011;10918;48.102;11.636;2023-06-10T01:44:39;8.38;;;6.20;;
21513;SDS011;10918;48.102;11.636;2023-06-10T01:47:06;6.80;;;5.70;;
21513;SDS011;10918;48.102;11.636;2023-06-10T01:49:32;6.95;;;6.25;;
21513;SDS011;10918;48.102;11.636;2023-06-10T01:51:58;6.43;;;5.82;;
21513;SDS011;10918;48.102;11.636;2023-06-10T01:54:24;7.15;;;6.55;;
21513;SDS011;10918;48.102;11.636;2023-06-10T01:56:51;6.53;;;5.90;;
21513;SDS011;10918;48.102;11.636;2023-06-10T01:59:17;7.38;;;6.20;;
21513;SDS011;10918;48.102;11.636;2023-06-10T02:01:43;6.07;;;5.53;;
21513;SDS011;10918;48.102;11.636;2023-06-10T02:04:09;6.93;;;6.22;;
21513;SDS011;10918;48.102;11.636;2023-06-10T02:06:35;6.78;;;5.97;;
21513;SDS011;10918;48.102;11.636;2023-06-10T02:09:02;6.50;;;5.63;;
21513;SDS011;10918;48.102;11.636;2023-06-10T02:11:28;8.45;;;6.05;;
21513;SDS011;10918;48.102;11.636;2023-06-10T02:13:54;5.93;;;5.32;;
21513;SDS011;10918;48.102;11.636;2023-06-10T02:16:20;6.05;;;5.45;;
21513;SDS011;10918;48.102;11.636;2023-06-10T02:18:47;6.75;;;6.05;;
21513;SDS011;10918;48.102;11.636;2023-06-10T02:21:13;6.25;;;5.65;;
21513;SDS011;10918;48.102;11.636;2023-06-10T02:23:39;7.28;;;6.57;;
21513;SDS011;10918;48.102;11.636;2023-06-10T02:26:06;8.60;;;6.38;;
21513;SDS011;10918;48.102;11.636;2023-06-10T02:28:32;6.57;;;5.90;;
21513;SDS011;10918;48.102;11.636;2023-06-10T02:30:57;7.25;;;6.55;;
21513;SDS011;10918;48.102;11.636;2023-06-10T02:33:24;7.05;;;6.35;;
21513;SDS011;10918;48.102;11.636;2023-06-10T02:35:50;7.75;;;6.95;;
21513;SDS011;10918;48.102;11.636;2023-06-10T02:38:16;7.72;;;6.15;;
21513;SDS011;10918;48.102;11.636;2023-06-10T02:40:43;7.30;;;6.03;;
21513;SDS011;10918;48.102;11.636;2023-06-10T02:43:09;6.55;;;5.95;;
21513;SDS011;10918;48.102;11.636;2023-06-10T02:45:35;7.05;;;6.35;;
21513;SDS011;10918;48.102;11.636;2023-06-10T02:48:01;6.53;;;5.93;;
21513;SDS011;10918;48.102;11.636;2023-06-10T02:50:27;7.85;;;6.88;;
21513;SDS011;10918;48.102;11.636;2023-06-10T02:52:53;7.60;;;6.88;;
21513;SDS011;10918;48.102;11.636;2023-06-10T02:55:19;7.20;;;6.50;;
21513;SDS011;10918;48.102;11.636;2023-06-10T02:57:45;7.78;;;5.75;;
21513;SDS011;10918;48.102;11.636;2023-06-10T03:00:11;8.25;;;6.60;;
21513;SDS011;10918;48.102;11.636;2023-06-10T03:02:39;7.30;;;6.60;;
21513;SDS011;10918;48.102;11.636;2023-06-10T03:05:06;7.18;;;6.47;;
21513;SDS011;10918;48.102;11.636;2023-06-10T03:07:35;7.35;;;6.65;;
21513;SDS011;10918;48.102;11.636;2023-06-10T03:10:01;7.90;;;7.10;;
21513;SDS011;10918;48.102;11.636;2023-06-10T03:12:27;6.93;;;6.32;;
21513;SDS011;10918;48.102;11.636;2023-06-10T03:14:53;6.88;;;6.25;;
21513;SDS011;10918;48.102;11.636;2023-06-10T03:17:19;7.43;;;6.72;;
21513;SDS011;10918;48.102;11.636;2023-06-10T03:19:45;7.55;;;6.85;;
21513;SDS011;10918;48.102;11.636;2023-06-10T03:22:12;6.82;;;6.13;;
21513;SDS011;10918;48.102;11.636;2023-06-10T03:24:38;7.07;;;6.30;;
21513;SDS011;10918;48.102;11.636;2023-06-10T03:27:08;6.97;;;6.28;;
21513;SDS011;10918;48.102;11.636;2023-06-10T03:29:35;7.47;;;6.57;;
21513;SDS011;10918;48.102;11.636;2023-06-10T03:32:01;7.60;;;6.90;;
21513;SDS011;10918;48.102;11.636;2023-06-10T03:34:27;7.78;;;6.75;;
21513;SDS011;10918;48.102;11.636;2023-06-10T03:36:54;10.00;;;7.28;;
21513;SDS011;10918;48.102;11.636;2023-06-10T03:39:20;7.55;;;6.85;;
21513;SDS011;10918;48.102;11.636;2023-06-10T03:41:48;7.47;;;6.68;;
21513;SDS011;10918;48.102;11.636;2023-06-10T03:44:14;7.75;;;7.05;;
21513;SDS011;10918;48.102;11.636;2023-06-10T03:46:40;8.13;;;7.38;;
21513;SDS011;10918;48.102;11.636;2023-06-10T03:49:06;8.05;;;7.25;;
21513;SDS011;10918;48.102;11.636;2023-06-10T03:51:32;9.30;;;7.35;;
21513;SDS011;10918;48.102;11.636;2023-06-10T03:53:58;8.18;;;7.07;;
21513;SDS011;10918;48.102;11.636;2023-06-10T03:56:24;8.27;;;7.28;;
21513;SDS011;10918;48.102;11.636;2023-06-10T03:58:50;8.20;;;7.40;;
21513;SDS011;10918;48.102;11.636;2023-06-10T04:01:16;8.07;;;7.28;;
21513;SDS011;10918;48.102;11.636;2023-06-10T04:03:46;8.18;;;7.38;;
21513;SDS011;10918;48.102;11.636;2023-06-10T04:06:14;8.13;;;7.30;;
21513;SDS011;10918;48.102;11.636;2023-06-10T04:08:41;9.40;;;8.40;;
21513;SDS011;10918;48.102;11.636;2023-06-10T04:11:07;7.90;;;7.18;;
21513;SDS011;10918;48.102;11.636;2023-06-10T04:13:33;10.07;;;7.85;;
21513;SDS011;10918;48.102;11.636;2023-06-10T04:15:59;8.90;;;8.10;;
21513;SDS011;10918;48.102;11.636;2023-06-10T04:18:25;10.18;;;8.65;;
21513;SDS011;10918;48.102;11.636;2023-06-10T04:20:51;9.85;;;8.40;;
21513;SDS011;10918;48.102;11.636;2023-06-10T04:23:17;10.32;;;8.65;;
21513;SDS011;10918;48.102;11.636;2023-06-10T04:25:43;9.55;;;8.65;;
21513;SDS011;10918;48.102;11.636;2023-06-10T04:28:09;10.00;;;9.00;;
21513;SDS011;10918;48.102;11.636;2023-06-10T04:30:35;9.27;;;8.48;;
21513;SDS011;10918;48.102;11.636;2023-06-10T04:33:01;11.75;;;9.52;;
21513;SDS011;10918;48.102;11.636;2023-06-10T04:35:27;10.98;;;9.02;;
21513;SDS011;10918;48.102;11.636;2023-06-10T04:37:53;9.38;;;8.45;;
21513;SDS011;10918;48.102;11.636;2023-06-10T04:40:19;9.52;;;8.63;;
21513;SDS011;10918;48.102;11.636;2023-06-10T04:42:45;10.50;;;9.45;;
21513;SDS011;10918;48.102;11.636;2023-06-10T04:45:12;10.57;;;9.50;;
21513;SDS011;10918;48.102;11.636;2023-06-10T04:47:38;10.40;;;9.43;;
21513;SDS011;10918;48.102;11.636;2023-06-10T04:50:04;9.85;;;8.88;;
21513;SDS011;10918;48.102;11.636;2023-06-10T04:52:30;10.90;;;9.75;;
21513;SDS011;10918;48.102;11.636;2023-06-10T04:54:57;11.55;;;9.85;;
21513;SDS011;10918;48.102;11.636;2023-06-10T04:57:23;11.18;;;9.88;;
21513;SDS011;10918;48.102;11.636;2023-06-10T04:59:49;10.20;;;9.18;;
21513;SDS011;10918;48.102;11.636;2023-06-10T05:02:15;10.30;;;9.30;;
21513;SDS011;10918;48.102;11.636;2023-06-10T05:04:41;10.45;;;9.13;;
21513;SDS011;10918;48.102;11.636;2023-06-10T05:07:07;10.95;;;9.48;;
21513;SDS011;10918;48.102;11.636;2023-06-10T05:09:33;11.23;;;10.10;;
21513;SDS011;10918;48.102;11.636;2023-06-10T05:11:59;9.98;;;8.98;;
21513;SDS011;10918;48.102;11.636;2023-06-10T05:14:25;10.82;;;9.73;;
21513;SDS011;10918;48.102;11.636;2023-06-10T05:16:52;12.85;;;9.13;;
21513;SDS011;10918;48.102;11.636;2023-06-10T05:19:18;14.05;;;9.95;;
21513;SDS011;10918;48.102;11.636;2023-06-10T05:21:44;11.80;;;9.70;;
21513;SDS011;10918;48.102;11.636;2023-06-10T05:24:11;10.80;;;9.13;;
21513;SDS011;10918;48.102;11.636;2023-06-10T05:26:37;11.38;;;9.90;;
21513;SDS011;10918;48.102;11.636;2023-06-10T05:29:03;11.35;;;10.25;;
21513;SDS011;10918;48.102;11.636;2023-06-10T05:31:29;11.10;;;10.00;;
21513;SDS011;10918;48.102;11.636;2023-06-10T05:33:55;11.40;;;10.27;;
21513;SDS011;10918;48.102;11.636;2023-06-10T05:36:21;10.43;;;9.32;;
21513;SDS011;10918;48.102;11.636;2023-06-10T05:38:50;12.32;;;10.18;;
21513;SDS011;10918;48.102;11.636;2023-06-10T05:41:16;11.07;;;9.98;;
21513;SDS011;10918;48.102;11.636;2023-06-10T05:43:42;10.60;;;9.50;;
21513;SDS011;10918;48.102;11.636;2023-06-10T05:46:08;10.38;;;9.07;;
21513;SDS011;10918;48.102;11.636;2023-06-10T05:48:34;10.88;;;9.77;;
21513;SDS011;10918;48.102;11.636;2023-06-10T05:51:00;11.02;;;10.02;;
21513;SDS011;10918;48.102;11.636;2023-06-10T05:53:26;10.43;;;9.43;;
21513;SDS011;10918;48.102;11.636;2023-06-10T05:55:52;9.60;;;8.60;;
21513;SDS011;10918;48.102;11.636;2023-06-10T05:58:22;11.98;;;9.90;;
21513;SDS011;10918;48.102;11.636;2023-06-10T06:00:48;11.88;;;9.15;;
21513;SDS011;10918;48.102;11.636;2023-06-10T06:03:14;9.95;;;8.95;;
21513;SDS011;10918;48.102;11.636;2023-06-10T06:05:40;9.90;;;8.90;;
21513;SDS011;10918;48.102;11.636;2023-06-10T06:08:06;10.48;;;9.48;;
21513;SDS011;10918;48.102;11.636;2023-06-10T06:10:32;10.60;;;8.73;;
21513;SDS011;10918;48.102;11.636;2023-06-10T06:12:59;10.15;;;9.15;;
21513;SDS011;10918;48.102;11.636;2023-06-10T06:15:25;10.35;;;9.23;;
21513;SDS011;10918;48.102;11.636;2023-06-10T06:17:51;9.77;;;8.88;;
21513;SDS011;10918;48.102;11.636;2023-06-10T06:20:18;11.18;;;9.32;;
21513;SDS011;10918;48.102;11.636;2023-06-10T06:22:44;10.43;;;9.30;;
21513;SDS011;10918;48.102;11.636;2023-06-10T06:25:10;11.73;;;9.02;;
21513;SDS011;10918;48.102;11.636;2023-06-10T06:27:36;10.60;;;9.60;;
21513;SDS011;10918;48.102;11.636;2023-06-10T06:30:02;10.95;;;9.85;;
21513;SDS011;10918;48.102;11.636;2023-06-10T06:32:28;10.25;;;9.25;;
21513;SDS011;10918;48.102;11.636;2023-06-10T06:34:54;9.15;;;8.20;;
21513;SDS011;10918;48.102;11.636;2023-06-10T06:37:24;10.13;;;9.13;;
21513;SDS011;10918;48.102;11.636;2023-06-10T06:39:50;11.02;;;9.65;;
21513;SDS011;10918;48.102;11.636;2023-06-10T06:42:16;9.05;;;8.15;;
21513;SDS011;10918;48.102;11.636;2023-06-10T06:44:43;10.52;;;9.52;;
21513;SDS011;10918;48.102;11.636;2023-06-10T06:47:09;9.70;;;8.80;;
21513;SDS011;10918;48.102;11.636;2023-06-10T06:49:35;10.57;;;9.48;;
21513;SDS011;10918;48.102;11.636;2023-06-10T06:52:01;9.48;;;8.57;;
21513;SDS011;10918;48.102;11.636;2023-06-10T06:54:27;10.57;;;9.43;;
21513;SDS011;10918;48.102;11.636;2023-06-10T06:56:54;9.07;;;8.27;;
21513;SDS011;10918;48.102;11.636;2023-06-10T06:59:20;9.13;;;8.23;;
21513;SDS011;10918;48.102;11.636;2023-06-10T07:01:46;8.80;;;7.90;;
21513;SDS011;10918;48.102;11.636;2023-06-10T07:04:14;9.15;;;8.23;;
21513;SDS011;10918;48.102;11.636;2023-06-10T07:06:40;9.38;;;8.25;;
21513;SDS011;10918;48.102;11.636;2023-06-10T07:09:07;8.65;;;7.75;;
21513;SDS011;10918;48.102;11.636;2023-06-10T07:11:36;9.52;;;8.32;;
21513;SDS011;10918;48.102;11.636;2023-06-10T07:14:02;8.65;;;7.82;;
21513;SDS011;10918;48.102;11.636;2023-06-10T07:16:28;9.20;;;8.30;;
21513;SDS011;10918;48.102;11.636;2023-06-10T07:18:54;9.95;;;8.95;;
21513;SDS011;10918;48.102;11.636;2023-06-10T07:21:20;9.50;;;8.60;;
21513;SDS011;10918;48.102;11.636;2023-06-10T07:23:47;8.90;;;8.02;;
21513;SDS011;10918;48.102;11.636;2023-06-10T07:26:13;8.60;;;7.80;;
21513;SDS011;10918;48.102;11.636;2023-06-10T07:28:40;9.40;;;8.15;;
21513;SDS011;10918;48.102;11.636;2023-06-10T07:31:07;7.47;;;6.65;;
21513;SDS011;10918;48.102;11.636;2023-06-10T07:33:33;8.10;;;7.30;;
21513;SDS011;10918;48.102;11.636;2023-06-10T07:35:59;8.07;;;7.07;;
21513;SDS011;10918;48.102;11.636;2023-06-10T07:38:25;7.65;;;6.88;;
21513;SDS011;10918;48.102;11.636;2023-06-10T07:40:52;8.38;;;7.57;;
21513;SDS011;10918;48.102;11.636;2023-06-10T07:43:18;8.00;;;7.15;;
21513;SDS011;10918;48.102;11.636;2023-06-10T07:45:44;8.68;;;7.78;;
21513;SDS011;10918;48.102;11.636;2023-06-10T07:48:10;7.63;;;6.70;;
21513;SDS011;10918;48.102;11.636;2023-06-10T07:50:36;7.13;;;6.53;;
21513;SDS011;10918;48.102;11.636;2023-06-10T07:53:02;9.55;;;6.88;;
21513;SDS011;10918;48.102;11.636;2023-06-10T07:55:28;7.13;;;6.43;;
21513;SDS011;10918;48.102;11.636;2023-06-10T07:57:54;6.57;;;5.88;;
21513;SDS011;10918;48.102;11.636;2023-06-10T08:00:21;6.53;;;5.75;;
21513;SDS011;10918;48.102;11.636;2023-06-10T08:02:47;5.97;;;5.20;;
21513;SDS011;10918;48.102;11.636;2023-06-10T08:05:13;5.65;;;5.15;;
21513;SDS011;10918;48.102;11.636;2023-06-10T08:07:39;5.80;;;5.22;;
21513;SDS011;10918;48.102;11.636;2023-06-10T08:10:06;5.13;;;4.72;;
21513;SDS011;10918;48.102;11.636;2023-06-10T08:12:32;5.15;;;4.70;;
21513;SDS011;10918;48.102;11.636;2023-06-10T08:14:58;5.75;;;5.25;;
21513;SDS011;10918;48.102;11.636;2023-06-10T08:17:24;6.05;;;5.45;;
21513;SDS011;10918;48.102;11.636;2023-06-10T08:19:50;5.25;;;4.75;;
21513;SDS011;10918;48.102;11.636;2023-06-10T08:22:16;5.97;;;5.38;;
21513;SDS011;10918;48.102;11.636;2023-06-10T08:24:43;6.05;;;5.55;;
21513;SDS011;10918;48.102;11.636;2023-06-10T08:27:09;5.60;;;5.10;;
21513;SDS011;10918;48.102;11.636;2023-06-10T08:29:35;5.88;;;5.03;;
21513;SDS011;10918;48.102;11.636;2023-06-10T08:32:01;5.45;;;4.95;;
21513;SDS011;10918;48.102;11.636;2023-06-10T08:34:27;6.60;;;5.10;;
21513;SDS011;10918;48.102;11.636;2023-06-10T08:36:53;5.70;;;5.20;;
21513;SDS011;10918;48.102;11.636;2023-06-10T08:39:20;5.65;;;5.15;;
21513;SDS011;10918;48.102;11.636;2023-06-10T08:44:32;5.13;;;4.65;;
21513;SDS011;10918;48.102;11.636;2023-06-10T08:47:03;5.80;;;5.20;;
21513;SDS011;10918;48.102;11.636;2023-06-10T08:49:34;5.10;;;4.60;;
21513;SDS011;10918;48.102;11.636;2023-06-10T08:52:03;5.00;;;4.30;;
21513;SDS011;10918;48.102;11.636;2023-06-10T08:54:32;4.60;;;4.20;;
21513;SDS011;10918;48.102;11.636;2023-06-10T08:57:03;3.80;;;3.50;;
21513;SDS011;10918;48.102;11.636;2023-06-10T08:59:31;3.70;;;3.40;;
21513;SDS011;10918;48.102;11.636;2023-06-10T09:01:57;4.05;;;3.65;;
21513;SDS011;10918;48.102;11.636;2023-06-10T09:04:24;3.70;;;3.40;;
21513;SDS011;10918;48.102;11.636;2023-06-10T09:06:50;5.20;;;4.70;;
21513;SDS011;10918;48.102;11.636;2023-06-10T09:09:16;5.47;;;4.97;;
21513;SDS011;10918;48.102;11.636;2023-06-10T09:11:44;5.70;;;4.97;;
21513;SDS011;10918;48.102;11.636;2023-06-10T09:14:10;5.65;;;5.05;;
21513;SDS011;10918;48.102;11.636;2023-06-10T09:16:41;4.60;;;4.20;;
21513;SDS011;10918;48.102;11.636;2023-06-10T09:19:07;5.22;;;4.82;;
21513;SDS011;10918;48.102;11.636;2023-06-10T09:21:34;4.85;;;4.45;;
21513;SDS011;10918;48.102;11.636;2023-06-10T09:24:01;5.03;;;4.53;;
21513;SDS011;10918;48.102;11.636;2023-06-10T09:26:27;6.32;;;5.13;;
21513;SDS011;10918;48.102;11.636;2023-06-10T09:28:57;5.15;;;4.65;;
21513;SDS011;10918;48.102;11.636;2023-06-10T09:31:23;5.60;;;5.10;;
21513;SDS011;10918;48.102;11.636;2023-06-10T09:33:49;4.90;;;4.43;;
21513;SDS011;10918;48.102;11.636;2023-06-10T09:36:23;5.47;;;4.43;;
21513;SDS011;10918;48.102;11.636;2023-06-10T09:38:49;5.22;;;4.82;;
21513;SDS011;10918;48.102;11.636;2023-06-10T09:41:18;4.80;;;4.40;;
21513;SDS011;10918;48.102;11.636;2023-06-10T09:43:45;4.97;;;4.18;;
21513;SDS011;10918;48.102;11.636;2023-06-10T09:46:15;4.45;;;4.05;;
21513;SDS011;10918;48.102;11.636;2023-06-10T09:48:42;4.28;;;3.88;;
21513;SDS011;10918;48.102;11.636;2023-06-10T09:51:09;4.30;;;3.92;;
21513;SDS011;10918;48.102;11.636;2023-06-10T09:53:35;4.45;;;4.05;;
21513;SDS011;10918;48.102;11.636;2023-06-10T09:56:01;3.95;;;3.63;;
21513;SDS011;10918;48.102;11.636;2023-06-10T09:58:39;4.13;;;3.72;;
21513;SDS011;10918;48.102;11.636;2023-06-10T10:01:08;4.68;;;3.90;;
21513;SDS011;10918;48.102;11.636;2023-06-10T10:03:44;4.22;;;3.80;;
21513;SDS011;10918;48.102;11.636;2023-06-10T10:06:14;4.38;;;4.03;;
21513;SDS011;10918;48.102;11.636;2023-06-10T10:08:40;4.32;;;3.92;;
21513;SDS011;10918;48.102;11.636;2023-06-10T10:11:06;4.22;;;3.90;;
21513;SDS011;10918;48.102;11.636;2023-06-10T10:13:33;4.47;;;3.83;;
21513;SDS011;10918;48.102;11.636;2023-06-10T10:16:01;4.43;;;3.97;;
21513;SDS011;10918;48.102;11.636;2023-06-10T10:18:29;3.95;;;3.65;;
21513;SDS011;10918;48.102;11.636;2023-06-10T10:20:57;4.38;;;3.97;;
21513;SDS011;10918;48.102;11.636;2023-06-10T10:23:26;4.20;;;3.80;;
21513;SDS011;10918;48.102;11.636;2023-06-10T10:25:55;4.07;;;3.67;;
21513;SDS011;10918;48.102;11.636;2023-06-10T10:28:24;3.40;;;3.10;;
21513;SDS011;10918;48.102;11.636;2023-06-10T10:30:52;5.28;;;4.05;;
21513;SDS011;10918;48.102;11.636;2023-06-10T10:33:21;4.38;;;3.63;;
21513;SDS011;10918;48.102;11.636;2023-06-10T10:35:48;4.03;;;3.72;;
21513;SDS011;10918;48.102;11.636;2023-06-10T10:38:15;3.70;;;3.40;;
21513;SDS011;10918;48.102;11.636;2023-06-10T10:40:41;4.22;;;3.83;;
21513;SDS011;10918;48.102;11.636;2023-06-10T10:43:08;3.83;;;3.53;;
21513;SDS011;10918;48.102;11.636;2023-06-10T10:45:34;3.53;;;3.22;;
21513;SDS011;10918;48.102;11.636;2023-06-10T10:48:04;4.20;;;3.78;;
21513;SDS011;10918;48.102;11.636;2023-06-10T10:50:31;3.53;;;3.22;;
21513;SDS011;10918;48.102;11.636;2023-06-10T10:53:00;3.83;;;3.53;;
21513;SDS011;10918;48.102;11.636;2023-06-10T10:55:27;4.65;;;3.67;;
21513;SDS011;10918;48.102;11.636;2023-06-10T10:58:03;3.42;;;3.10;;
21513;SDS011;10918;48.102;11.636;2023-06-10T11:00:34;3.60;;;3.30;;
21513;SDS011;10918;48.102;11.636;2023-06-10T11:03:12;3.35;;;3.08;;
21513;SDS011;10918;48.102;11.636;2023-06-10T11:05:39;3.55;;;3.25;;
21513;SDS011;10918;48.102;11.636;2023-06-10T11:08:08;3.47;;;3.17;;
21513;SDS011;10918;48.102;11.636;2023-06-10T11:10:35;3.40;;;3.10;;
21513;SDS011;10918;48.102;11.636;2023-06-10T11:13:14;3.80;;;3.50;;
21513;SDS011;10918;48.102;11.636;2023-06-10T11:15:50;4.47;;;3.53;;
21513;SDS011;10918;48.102;11.636;2023-06-10T11:18:23;4.40;;;3.40;;
21513;SDS011;10918;48.102;11.636;2023-06-10T11:28:36;2.88;;;2.67;;
21513;SDS011;10918;48.102;11.636;2023-06-10T11:31:02;3.35;;;3.05;;
21513;SDS011;10918;48.102;11.636;2023-06-10T11:33:28;3.90;;;3.50;;
21513;SDS011;10918;48.102;11.636;2023-06-10T11:35:54;3.47;;;3.17;;
21513;SDS011;10918;48.102;11.636;2023-06-10T11:38:20;3.05;;;2.75;;
21513;SDS011;10918;48.102;11.636;2023-06-10T11:40:49;3.67;;;3.05;;
21513;SDS011;10918;48.102;11.636;2023-06-10T11:43:19;3.60;;;3.30;;
21513;SDS011;10918;48.102;11.636;2023-06-10T11:45:45;3.35;;;3.05;;
21513;SDS011;10918;48.102;11.636;2023-06-10T11:48:12;3.30;;;3.00;;
21513;SDS011;10918;48.102;11.636;2023-06-10T11:50:38;3.47;;;3.17;;
21513;SDS011;10918;48.102;11.636;2023-06-10T11:53:07;4.40;;;4.00;;
21513;SDS011;10918;48.102;11.636;2023-06-10T11:55:43;3.25;;;2.95;;
21513;SDS011;10918;48.102;11.636;2023-06-10T11:58:13;2.60;;;2.40;;
21513;SDS011;10918;48.102;11.636;2023-06-10T12:00:46;3.03;;;2.78;;
21513;SDS011;10918;48.102;11.636;2023-06-10T12:03:12;2.83;;;2.50;;
21513;SDS011;10918;48.102;11.636;2023-06-10T12:05:38;2.50;;;2.30;;
21513;SDS011;10918;48.102;11.636;2023-06-10T12:08:11;2.30;;;2.10;;
21513;SDS011;10918;48.102;11.636;2023-06-10T12:10:43;3.95;;;2.20;;
21513;SDS011;10918;48.102;11.636;2023-06-10T12:13:09;2.60;;;2.40;;
21513;SDS011;10918;48.102;11.636;2023-06-10T12:15:35;2.55;;;2.08;;
21513;SDS011;10918;48.102;11.636;2023-06-10T12:18:01;2.15;;;2.05;;
21513;SDS011;10918;48.102;11.636;2023-06-10T12:20:31;2.55;;;2.35;;
21513;SDS011;10918;48.102;11.636;2023-06-10T12:23:07;2.28;;;2.10;;
21513;SDS011;10918;48.102;11.636;2023-06-10T12:25:34;2.70;;;2.50;;
21513;SDS011;10918;48.102;11.636;2023-06-10T12:28:01;2.85;;;2.30;;
21513;SDS011;10918;48.102;11.636;2023-06-10T12:30:28;3.67;;;2.20;;
21513;SDS011;10918;48.102;11.636;2023-06-10T12:32:54;2.50;;;2.30;;
21513;SDS011;10918;48.102;11.636;2023-06-10T12:35:22;2.33;;;2.10;;
21513;SDS011;10918;48.102;11.636;2023-06-10T12:37:54;2.28;;;2.08;;
21513;SDS011;10918;48.102;11.636;2023-06-10T12:40:28;2.40;;;2.20;;
21513;SDS011;10918;48.102;11.636;2023-06-10T12:42:56;2.38;;;2.00;;
21513;SDS011;10918;48.102;11.636;2023-06-10T12:45:29;2.30;;;2.10;;
21513;SDS011;10918;48.102;11.636;2023-06-10T12:48:05;2.65;;;2.10;;
21513;SDS011;10918;48.102;11.636;2023-06-10T12:50:32;2.17;;;2.00;;
21513;SDS011;10918;48.102;11.636;2023-06-10T12:52:59;2.75;;;2.55;;
21513;SDS011;10918;48.102;11.636;2023-06-10T12:55:25;2.92;;;2.72;;
21513;SDS011;10918;48.102;11.636;2023-06-10T12:57:53;4.00;;;3.00;;
21513;SDS011;10918;48.102;11.636;2023-06-10T13:00:20;3.65;;;3.03;;
21513;SDS011;10918;48.102;11.636;2023-06-10T13:02:48;2.95;;;2.75;;
21513;SDS011;10918;48.102;11.636;2023-06-10T13:05:15;3.15;;;2.95;;
21513;SDS011;10918;48.102;11.636;2023-06-10T13:07:41;3.17;;;2.95;;
21513;SDS011;10918;48.102;11.636;2023-06-10T13:10:07;3.70;;;3.40;;
21513;SDS011;10918;48.102;11.636;2023-06-10T13:12:33;3.38;;;3.08;;
21513;SDS011;10918;48.102;11.636;2023-06-10T13:15:01;3.20;;;2.90;;
21513;SDS011;10918;48.102;11.636;2023-06-10T13:17:27;3.33;;;3.10;;
21513;SDS011;10918;48.102;11.636;2023-06-10T13:19:53;3.92;;;3.55;;
21513;SDS011;10918;48.102;11.636;2023-06-10T13:22:19;3.33;;;3.03;;
21513;SDS011;10918;48.102;11.636;2023-06-10T13:24:46;3.13;;;2.92;;
21513;SDS011;10918;48.102;11.636;2023-06-10T13:27:12;3.63;;;3.33;;
21513;SDS011;10918;48.102;11.636;2023-06-10T13:29:41;3.58;;;3.28;;
21513;SDS011;10918;48.102;11.636;2023-06-10T13:32:07;3.95;;;3.50;;
21513;SDS011;10918;48.102;11.636;2023-06-10T13:34:33;5.45;;;3.28;;
21513;SDS011;10918;48.102;11.636;2023-06-10T13:36:59;3.47;;;3.17;;
21513;SDS011;10918;48.102;11.636;2023-06-10T13:39:25;4.13;;;3.05;;
21513;SDS011;10918;48.102;11.636;2023-06-10T13:41:52;3.67;;;3.38;;
21513;SDS011;10918;48.102;11.636;2023-06-10T13:44:18;3.13;;;2.90;;
21513;SDS011;10918;48.102;11.636;2023-06-10T13:46:44;2.70;;;2.50;;
21513;SDS011;10918;48.102;11.636;2023-06-10T13:49:10;2.60;;;2.40;;
21513;SDS011;10918;48.102;11.636;2023-06-10T13:51:36;2.42;;;2.22;;
21513;SDS011;10918;48.102;11.636;2023-06-10T13:54:02;2.60;;;2.30;;
21513;SDS011;10918;48.102;11.636;2023-06-10T13:56:28;2.70;;;2.50;;
21513;SDS011;10918;48.102;11.636;2023-06-10T13:58:54;3.20;;;2.65;;
21513;SDS011;10918;48.102;11.636;2023-06-10T14:01:20;2.95;;;2.75;;
21513;SDS011;10918;48.102;11.636;2023-06-10T14:03:46;2.50;;;2.30;;
21513;SDS011;10918;48.102;11.636;2023-06-10T14:06:12;2.88;;;2.67;;
21513;SDS011;10918;48.102;11.636;2023-06-10T14:08:43;3.25;;;2.53;;
21513;SDS011;10918;48.102;11.636;2023-06-10T14:11:09;2.42;;;2.30;;
21513;SDS011;10918;48.102;11.636;2023-06-10T14:13:34;2.28;;;2.08;;
21513;SDS011;10918;48.102;11.636;2023-06-10T14:16:03;1.75;;;1.65;;
21513;SDS011;10918;48.102;11.636;2023-06-10T14:18:29;2.22;;;2.13;;
21513;SDS011;10918;48.102;11.636;2023-06-10T14:20:55;2.03;;;1.92;;
21513;SDS011;10918;48.102;11.636;2023-06-10T14:23:21;3.10;;;2.55;;
21513;SDS011;10918;48.102;11.636;2023-06-10T14:25:49;2.25;;;2.15;;
21513;SDS011;10918;48.102;11.636;2023-06-10T14:28:15;2.40;;;2.20;;
21513;SDS011;10918;48.102;11.636;2023-06-10T14:30:41;2.80;;;2.60;;
21513;SDS011;10918;48.102;11.636;2023-06-10T14:33:07;2.47;;;2.28;;
21513;SDS011;10918;48.102;11.636;2023-06-10T14:35:33;2.85;;;2.65;;
21513;SDS011;10918;48.102;11.636;2023-06-10T14:37:59;2.35;;;2.25;;
21513;SDS011;10918;48.102;11.636;2023-06-10T14:40:25;2.78;;;2.55;;
21513;SDS011;10918;48.102;11.636;2023-06-10T14:42:53;2.30;;;2.10;;
21513;SDS011;10918;48.102;11.636;2023-06-10T14:45:19;2.47;;;2.20;;
21513;SDS011;10918;48.102;11.636;2023-06-10T14:47:45;2.55;;;2.35;;
21513;SDS011;10918;48.102;11.636;2023-06-10T14:50:12;2.38;;;2.15;;